Time;durP1;ratioP1;P1;durP2;ratioP2;P2;SDS_P1;SDS_P2;PMS_P1;PMS_P2;Temp;Humidity;BMP_temperature;BMP_pressure;BME280_temperature;BME280_humidity;BME280_pressure;Samples;Min_cycle;Max_cycle;Signal;HPM_P1;HPM_P2
2023/09/19 00:00:57;;;;;;;28.58;20.65;;;22.00;99.90;;;;;;4902515;29;20029;-84
2023/09/19 00:03:25;;;;;;;22.65;19.80;;;22.00;99.90;;;;;;4898207;29;20398;-84
2023/09/19 00:05:52;;;;;;;24.20;19.80;;;22.00;99.90;;;;;;4897015;29;20432;-84
2023/09/19 00:08:23;;;;;;;23.85;19.40;;;22.00;99.90;;;;;;4896894;29;20040;-84
2023/09/19 00:10:50;;;;;;;33.78;20.38;;;22.00;99.90;;;;;;4896894;29;20031;-84
2023/09/19 00:13:18;;;;;;;25.88;19.80;;;21.90;99.90;;;;;;4917480;29;20629;-83
2023/09/19 00:15:48;;;;;;;25.33;19.70;;;21.90;99.90;;;;;;4899188;29;20032;-84
2023/09/19 00:18:16;;;;;;;27.38;19.52;;;21.90;99.90;;;;;;4896586;29;20058;-84
2023/09/19 00:20:47;;;;;;;26.30;20.92;;;21.90;99.90;;;;;;4896383;29;20033;-84
2023/09/19 00:23:14;;;;;;;34.67;20.50;;;21.90;99.90;;;;;;4882681;29;20044;-83
2023/09/19 00:25:41;;;;;;;24.30;20.17;;;21.90;99.90;;;;;;4862312;29;20057;-84
2023/09/19 00:28:09;;;;;;;27.05;19.67;;;21.90;99.90;;;;;;4864337;29;20119;-84
2023/09/19 00:30:36;;;;;;;24.65;19.80;;;21.90;99.90;;;;;;4899242;29;20491;-83
2023/09/19 00:33:05;;;;;;;24.58;19.20;;;22.00;99.90;;;;;;4900068;29;20104;-84
2023/09/19 00:35:33;;;;;;;23.92;19.30;;;22.00;99.90;;;;;;4900030;29;20025;-84
2023/09/19 00:38:00;;;;;;;27.90;19.48;;;22.10;99.90;;;;;;4899641;29;20055;-84
2023/09/19 00:40:26;;;;;;;27.95;19.48;;;22.10;99.90;;;;;;4899949;29;20063;-84
2023/09/19 00:43:01;;;;;;;21.45;19.30;;;22.20;99.90;;;;;;4900071;29;20028;-83
2023/09/19 00:45:31;;;;;;;21.92;19.42;;;22.20;99.90;;;;;;4900070;29;20033;-83
2023/09/19 00:48:10;;;;;;;20.98;18.77;;;22.20;99.90;;;;;;4899745;29;20401;-84
2023/09/19 00:50:43;;;;;;;23.25;18.60;;;22.20;99.90;;;;;;4900035;29;20472;-84
2023/09/19 00:53:18;;;;;;;24.58;20.35;;;22.20;99.90;;;;;;4899944;29;20379;-83
2023/09/19 00:55:46;;;;;;;23.05;19.92;;;22.20;99.90;;;;;;4900007;29;20039;-84
2023/09/19 00:58:13;;;;;;;25.90;19.67;;;22.10;99.90;;;;;;4899661;29;20059;-83
2023/09/19 01:00:44;;;;;;;22.08;19.52;;;22.10;99.90;;;;;;4899892;29;20039;-84
2023/09/19 01:03:15;;;;;;;29.20;20.15;;;22.10;99.90;;;;;;4899717;29;20043;-83
2023/09/19 01:05:42;;;;;;;31.10;20.30;;;22.00;99.90;;;;;;4899450;29;20044;-84
2023/09/19 01:08:11;;;;;;;23.35;19.90;;;22.00;99.90;;;;;;4915126;29;20044;-84
2023/09/19 01:10:50;;;;;;;28.70;20.73;;;22.00;99.90;;;;;;4899379;29;20039;-84
2023/09/19 01:13:31;;;;;;;33.10;21.30;;;21.90;99.90;;;;;;4899422;29;20067;-83
2023/09/19 01:16:30;;;;;;;27.98;20.13;;;21.90;99.90;;;;;;4899458;29;20024;-84
2023/09/19 01:19:33;;;;;;;30.02;20.15;;;21.90;99.90;;;;;;4899356;29;20036;-84
2023/09/19 01:22:54;;;;;;;25.70;20.08;;;21.80;99.90;;;;;;4899332;29;20036;-83
2023/09/19 01:25:53;;;;;;;28.17;19.58;;;21.80;99.90;;;;;;4864565;29;20096;-84
2023/09/19 01:28:57;;;;;;;25.83;19.65;;;21.80;99.90;;;;;;4849967;29;20133;-83
2023/09/19 01:31:35;;;;;;;25.83;19.23;;;21.80;99.90;;;;;;4834389;29;20096;-83
2023/09/19 01:34:07;;;;;;;24.05;19.30;;;21.80;99.90;;;;;;4848494;29;20037;-83
2023/09/19 01:36:36;;;;;;;24.42;19.92;;;21.70;99.90;;;;;;4863625;29;20050;-83
2023/09/19 01:39:12;;;;;;;24.83;18.83;;;21.70;99.90;;;;;;4872033;29;20053;-83
2023/09/19 01:41:57;;;;;;;29.67;19.73;;;21.70;99.90;;;;;;4866008;29;20033;-84
2023/09/19 01:44:48;;;;;;;22.27;18.77;;;21.70;99.90;;;;;;4884596;29;20173;-84
2023/09/19 01:47:53;;;;;;;23.42;20.90;;;21.70;99.90;;;;;;4867434;29;20440;-83
2023/09/19 01:50:55;;;;;;;21.38;18.77;;;21.70;99.90;;;;;;4876219;29;20048;-83
2023/09/19 01:53:36;;;;;;;27.15;19.38;;;21.70;99.90;;;;;;4849817;29;20036;-84
2023/09/19 01:56:12;;;;;;;27.52;18.88;;;21.80;99.90;;;;;;4890696;29;20081;-83
2023/09/19 01:58:52;;;;;;;22.50;18.13;;;21.80;99.90;;;;;;4896955;29;20024;-84
2023/09/19 02:01:26;;;;;;;23.88;18.30;;;21.90;99.90;;;;;;4898486;29;20127;-84
2023/09/19 02:03:54;;;;;;;27.50;19.25;;;21.90;99.90;;;;;;4898726;29;20033;-84
2023/09/19 02:06:21;;;;;;;21.25;18.52;;;21.90;99.90;;;;;;4898360;29;20084;-84
2023/09/19 02:08:47;;;;;;;24.20;19.60;;;21.90;99.90;;;;;;4898295;29;20498;-84
2023/09/19 02:11:16;;;;;;;21.10;18.95;;;21.80;99.90;;;;;;4899618;29;20025;-83
2023/09/19 02:13:43;;;;;;;23.67;19.70;;;21.80;99.90;;;;;;4914168;29;20036;-84
2023/09/19 02:16:12;;;;;;;23.60;19.55;;;21.70;99.90;;;;;;4897672;29;20050;-84
2023/09/19 02:18:39;;;;;;;22.40;20.02;;;21.60;99.90;;;;;;4877438;29;20583;-83
2023/09/19 02:21:12;;;;;;;23.83;19.95;;;21.50;99.90;;;;;;4898112;29;20045;-84
2023/09/19 02:23:39;;;;;;;24.10;19.77;;;21.40;99.90;;;;;;4898167;29;20028;-84
2023/09/19 02:26:06;;;;;;;26.45;20.17;;;21.40;99.90;;;;;;4898058;29;20068;-83
2023/09/19 02:28:32;;;;;;;25.70;20.73;;;21.40;99.90;;;;;;4898797;29;20486;-84
2023/09/19 02:30:59;;;;;;;25.48;18.98;;;21.30;99.90;;;;;;4897071;29;20419;-83
2023/09/19 02:33:28;;;;;;;22.70;19.80;;;21.30;99.90;;;;;;4896979;29;20111;-83
2023/09/19 02:35:58;;;;;;;24.33;18.77;;;21.30;99.90;;;;;;4882347;29;20052;-83
2023/09/19 02:38:26;;;;;;;22.25;18.10;;;21.30;99.90;;;;;;4897364;29;20442;-82
2023/09/19 02:40:56;;;;;;;22.08;18.33;;;21.30;99.90;;;;;;4882254;29;20025;-82
2023/09/19 02:43:23;;;;;;;23.35;19.13;;;21.30;99.90;;;;;;4897789;29;20398;-83
2023/09/19 02:45:50;;;;;;;23.25;18.95;;;21.30;99.90;;;;;;4897651;29;20114;-83
2023/09/19 02:48:18;;;;;;;22.63;19.02;;;21.20;99.90;;;;;;4897454;29;20123;-82
2023/09/19 02:50:52;;;;;;;23.35;18.67;;;21.20;99.90;;;;;;4897592;29;20064;-83
2023/09/19 02:53:23;;;;;;;21.83;18.48;;;21.20;99.90;;;;;;4897455;29;20443;-82
2023/09/19 02:55:54;;;;;;;22.55;18.77;;;21.20;99.90;;;;;;4897725;29;20107;-82
2023/09/19 02:58:20;;;;;;;26.52;18.20;;;21.30;99.90;;;;;;4898635;29;20076;-82
2023/09/19 03:00:47;;;;;;;21.60;18.30;;;21.30;99.90;;;;;;4898836;29;20025;-82
2023/09/19 03:03:15;;;;;;;21.15;17.40;;;21.30;99.90;;;;;;4898801;29;20024;-82
2023/09/19 03:05:46;;;;;;;23.48;18.30;;;21.20;99.90;;;;;;4897403;29;20032;-82
2023/09/19 03:08:15;;;;;;;21.95;18.40;;;21.20;99.90;;;;;;4897068;29;20104;-81
2023/09/19 03:10:41;;;;;;;24.92;17.70;;;21.20;99.90;;;;;;4897409;29;20033;-82
2023/09/19 03:13:09;;;;;;;19.98;17.98;;;21.30;99.90;;;;;;4897253;29;20731;-83
2023/09/19 03:15:40;;;;;;;33.38;19.23;;;21.20;99.90;;;;;;4897186;29;20534;-82
2023/09/19 03:18:07;;;;;;;23.95;18.73;;;21.10;99.90;;;;;;4896971;29;20041;-82
2023/09/19 03:20:34;;;;;;;23.25;19.05;;;21.00;99.90;;;;;;4893836;29;20093;-82
2023/09/19 03:23:02;;;;;;;21.50;17.92;;;21.00;99.90;;;;;;4878484;29;20089;-83
2023/09/19 03:25:29;;;;;;;20.70;17.67;;;20.90;99.90;;;;;;4894170;29;20495;-84
2023/09/19 03:28:05;;;;;;;22.45;18.65;;;20.90;99.90;;;;;;4893925;29;20043;-85
2023/09/19 03:30:33;;;;;;;24.67;18.20;;;20.90;99.90;;;;;;4897831;29;20409;-84
2023/09/19 03:33:01;;;;;;;24.83;17.80;;;20.90;99.90;;;;;;4898149;29;20036;-84
2023/09/19 03:35:30;;;;;;;21.48;18.15;;;20.90;99.90;;;;;;4897350;29;20472;-85
2023/09/19 03:37:57;;;;;;;24.02;18.60;;;20.90;99.90;;;;;;4881615;29;20044;-86
2023/09/19 03:40:25;;;;;;;24.10;18.08;;;20.90;99.90;;;;;;4893624;29;20048;-84
2023/09/19 03:42:52;;;;;;;26.17;19.17;;;21.00;99.90;;;;;;4897193;29;20144;-85
2023/09/19 03:45:18;;;;;;;22.42;18.58;;;21.00;99.90;;;;;;4881606;29;20123;-86
2023/09/19 03:47:51;;;;;;;26.17;18.88;;;20.90;99.90;;;;;;4882761;29;20048;-86
2023/09/19 03:50:20;;;;;;;22.20;18.50;;;20.90;99.90;;;;;;4891823;29;20391;-86
2023/09/19 03:52:48;;;;;;;24.52;17.35;;;20.90;99.90;;;;;;4897044;29;20029;-86
2023/09/19 03:55:15;;;;;;;34.13;19.90;;;20.90;99.90;;;;;;4881881;29;20024;-87
2023/09/19 03:57:41;;;;;;;26.95;19.05;;;20.90;99.90;;;;;;4897812;29;20559;-87
2023/09/19 04:00:11;;;;;;;20.88;18.60;;;20.90;99.90;;;;;;4897733;29;20067;-86
2023/09/19 04:02:42;;;;;;;23.65;18.85;;;21.00;99.90;;;;;;4897786;29;20120;-87
2023/09/19 04:05:11;;;;;;;23.35;19.98;;;20.90;99.90;;;;;;4896659;29;20029;-87
2023/09/19 04:07:37;;;;;;;25.83;19.08;;;20.90;99.90;;;;;;4881810;29;20029;-86
2023/09/19 04:10:04;;;;;;;27.50;20.23;;;20.80;99.90;;;;;;4881948;29;20096;-87
2023/09/19 04:12:31;;;;;;;28.35;19.60;;;20.90;99.90;;;;;;4881915;29;20443;-87
2023/09/19 04:14:59;;;;;;;28.42;19.27;;;20.90;99.90;;;;;;4882056;29;20119;-87
2023/09/19 04:17:26;;;;;;;27.85;20.20;;;21.00;99.90;;;;;;4882883;29;20060;-87
2023/09/19 04:19:53;;;;;;;27.73;20.33;;;21.00;99.90;;;;;;4886719;29;20040;-81
2023/09/19 04:22:20;;;;;;;28.98;20.50;;;21.00;99.90;;;;;;4880079;29;20074;-81
2023/09/19 04:24:46;;;;;;;27.52;19.70;;;21.00;99.90;;;;;;4893314;29;20084;-81
2023/09/19 04:27:14;;;;;;;27.83;19.48;;;21.00;99.90;;;;;;4878834;29;20115;-81
2023/09/19 04:29:41;;;;;;;26.30;19.35;;;21.00;99.90;;;;;;4907067;29;20096;-81
2023/09/19 04:32:13;;;;;;;28.30;19.67;;;21.10;99.90;;;;;;4896642;29;20023;-81
2023/09/19 04:34:39;;;;;;;22.70;19.60;;;21.00;99.90;;;;;;4896280;29;20047;-81
2023/09/19 04:37:05;;;;;;;32.88;19.95;;;20.90;99.90;;;;;;4893269;29;20529;-80
2023/09/19 04:39:33;;;;;;;25.15;19.05;;;20.90;99.90;;;;;;4879286;29;20066;-81
2023/09/19 04:42:00;;;;;;;29.95;20.15;;;20.90;99.90;;;;;;4897349;29;20521;-82
2023/09/19 04:44:26;;;;;;;29.55;20.15;;;20.80;99.90;;;;;;4896111;29;20036;-82
2023/09/19 04:46:53;;;;;;;29.50;19.00;;;20.80;99.90;;;;;;4896095;29;20382;-81
2023/09/19 04:49:19;;;;;;;34.08;20.08;;;20.80;99.90;;;;;;4897388;29;20498;-81
2023/09/19 04:51:46;;;;;;;30.77;19.80;;;20.80;99.90;;;;;;4896302;29;20096;-81
2023/09/19 04:54:13;;;;;;;24.73;19.02;;;20.80;99.90;;;;;;4897265;29;20115;-81
2023/09/19 04:56:40;;;;;;;29.90;20.00;;;20.80;99.90;;;;;;4897479;29;20021;-82
2023/09/19 04:59:07;;;;;;;30.00;20.08;;;20.80;99.90;;;;;;4896105;29;20490;-81
2023/09/19 05:01:33;;;;;;;24.45;20.90;;;20.80;99.90;;;;;;4897359;29;20032;-81
2023/09/19 05:04:00;;;;;;;30.70;21.05;;;20.80;99.90;;;;;;4880447;29;20382;-81
2023/09/19 05:06:26;;;;;;;31.80;21.50;;;20.80;99.90;;;;;;4896946;29;20040;-81
2023/09/19 05:08:53;;;;;;;26.35;20.85;;;20.80;99.90;;;;;;4895939;29;20398;-81
2023/09/19 05:11:21;;;;;;;28.75;21.85;;;20.80;99.90;;;;;;4896185;29;20037;-82
2023/09/19 05:13:52;;;;;;;28.42;21.80;;;20.90;99.90;;;;;;4897185;29;20076;-81
2023/09/19 05:16:19;;;;;;;30.13;20.85;;;20.90;99.90;;;;;;4896815;29;20069;-82
2023/09/19 05:18:45;;;;;;;34.47;22.08;;;21.10;99.90;;;;;;4898912;29;20039;-83
2023/09/19 05:21:12;;;;;;;34.05;21.38;;;21.30;99.90;;;;;;4899099;29;20039;-83
2023/09/19 05:23:39;;;;;;;35.03;21.45;;;21.50;99.90;;;;;;4899263;29;20371;-80
2023/09/19 05:26:06;;;;;;;32.05;20.63;;;21.70;99.90;;;;;;4900546;29;20032;-80
2023/09/19 05:28:38;;;;;;;31.08;22.13;;;22.00;99.90;;;;;;4900505;29;20036;-82
2023/09/19 05:31:04;;;;;;;30.33;22.90;;;22.20;99.90;;;;;;4898228;29;20028;-80
2023/09/19 05:33:31;;;;;;;32.33;22.90;;;22.30;99.90;;;;;;4898751;29;20040;-79
2023/09/19 05:35:58;;;;;;;30.08;23.20;;;22.50;99.90;;;;;;4900167;29;20063;-80
2023/09/19 05:38:27;;;;;;;43.17;23.27;;;22.70;99.90;;;;;;4900075;29;20611;-80
2023/09/19 05:40:54;;;;;;;32.65;24.60;;;23.00;99.90;;;;;;4883073;29;20036;-80
2023/09/19 05:43:20;;;;;;;27.38;24.17;;;23.40;99.90;;;;;;4899097;29;20132;-80
2023/09/19 05:45:47;;;;;;;35.55;25.48;;;23.90;99.90;;;;;;4899492;29;20103;-80
2023/09/19 05:48:16;;;;;;;37.20;27.88;;;24.40;99.90;;;;;;4882742;29;20139;-80
2023/09/19 05:50:46;;;;;;;35.55;28.45;;;24.70;99.90;;;;;;4898962;29;20024;-81
2023/09/19 05:53:14;;;;;;;31.23;28.23;;;24.90;99.90;;;;;;4899166;29;20035;-80
2023/09/19 05:55:43;;;;;;;32.90;28.95;;;25.20;99.90;;;;;;4899671;29;20017;-80
2023/09/19 05:58:10;;;;;;;31.35;28.33;;;25.70;99.90;;;;;;4899878;29;20071;-80
2023/09/19 06:00:36;;;;;;;34.17;27.50;;;26.00;99.90;;;;;;4899679;29;20036;-80
2023/09/19 06:03:03;;;;;;;32.78;29.08;;;26.20;99.90;;;;;;4899780;29;20024;-80
2023/09/19 06:05:31;;;;;;;35.33;31.58;;;26.50;99.90;;;;;;4899512;29;20450;-81
2023/09/19 07:41:37;;;;;;;49.25;37.67;;;31.90;99.90;;;;;;5632765;23;20052;-87
2023/09/19 07:44:03;;;;;;;46.05;38.10;;;32.20;99.90;;;;;;4883864;29;20048;-87
2023/09/19 07:46:31;;;;;;;43.40;38.13;;;32.50;99.90;;;;;;4867737;29;20108;-86
2023/09/19 07:48:58;;;;;;;42.08;36.83;;;32.90;99.90;;;;;;4866714;29;20041;-88
2023/09/19 07:51:36;;;;;;;42.05;37.22;;;32.70;99.90;;;;;;4898038;29;20513;-87
2023/09/19 07:54:03;;;;;;;45.33;38.33;;;32.80;99.90;;;;;;4878984;29;20591;-87
2023/09/19 07:56:30;;;;;;;47.22;37.88;;;33.00;99.90;;;;;;4881638;29;20030;-87
2023/09/19 07:58:59;;;;;;;42.38;36.42;;;33.00;99.90;;;;;;4881695;29;20177;-87
2023/09/19 11:58:57;;;;;;;38.08;34.60;;;33.90;99.90;;;;;;5425821;23;20053;-76
2023/09/19 12:01:31;;;;;;;38.03;34.28;;;34.00;99.90;;;;;;4878073;29;20029;-75
2023/09/19 12:04:01;;;;;;;;;;;34.20;99.90;;;;;;4878502;29;20368;-78
2023/09/19 12:06:29;;;;;;;38.58;35.45;;;34.40;99.90;;;;;;4881219;29;19958;-91
2023/09/19 12:08:59;;;;;;;39.35;34.80;;;34.40;99.90;;;;;;4845042;29;20125;-87
2023/09/19 12:11:35;;;;;;;37.35;34.30;;;34.40;99.90;;;;;;4860878;29;20474;-88
2023/09/19 12:14:13;;;;;;;37.65;34.75;;;34.60;99.90;;;;;;4861574;29;20081;-86
2023/09/19 12:16:42;;;;;;;39.15;35.50;;;34.50;99.90;;;;;;4875846;29;20030;-88
2023/09/19 12:19:34;;;;;;;38.25;34.45;;;34.60;99.90;;;;;;4867373;29;20037;-89
2023/09/19 12:22:09;;;;;;;39.22;35.50;;;34.60;99.90;;;;;;4843304;29;20063;-92
2023/09/19 12:24:40;;;;;;;39.15;35.05;;;34.60;99.90;;;;;;4847243;29;20026;-87
2023/09/19 12:27:09;;;;;;;39.83;35.53;;;34.70;99.90;;;;;;4847204;29;20068;-90
2023/09/19 12:29:49;;;;;;;38.95;35.40;;;34.70;99.90;;;;;;4845631;29;20033;-90
2023/09/19 12:32:19;;;;;;;38.83;34.90;;;34.60;99.90;;;;;;4847763;29;20034;-88
2023/09/19 12:34:54;;;;;;;38.95;34.88;;;34.60;99.90;;;;;;4858015;29;20053;-88
2023/09/19 12:37:22;;;;;;;38.70;34.75;;;34.60;99.90;;;;;;4849584;29;20071;-87
2023/09/19 12:39:54;;;;;;;37.83;34.55;;;34.60;99.90;;;;;;4860561;29;20085;-85
2023/09/19 12:42:35;;;;;;;38.28;34.92;;;34.50;99.90;;;;;;4862966;29;20025;-85
2023/09/19 12:45:02;;;;;;;38.05;34.38;;;34.30;99.90;;;;;;4864139;29;20029;-84
2023/09/19 12:47:34;;;;;;;36.90;33.92;;;34.20;99.90;;;;;;4863022;29;20021;-85
2023/09/19 12:50:19;;;;;;;39.40;36.05;;;34.20;99.90;;;;;;4875254;29;20046;-84
2023/09/19 12:52:48;;;;;;;38.33;35.15;;;34.20;99.90;;;;;;4862787;29;20390;-85
2023/09/19 12:55:26;;;;;;;36.67;33.67;;;34.20;99.90;;;;;;4863408;29;20398;-88
2023/09/19 12:58:09;;;;;;;37.83;34.50;;;34.00;99.90;;;;;;4865035;29;20045;-89
2023/09/19 13:00:40;;;;;;;;;;;34.10;99.90;;;;;;4864591;29;20128;-88
2023/09/19 13:03:31;;;;;;;37.40;34.22;;;34.20;99.90;;;;;;4862519;29;19968;-85
2023/09/19 13:06:03;;;;;;;36.97;33.45;;;34.10;99.90;;;;;;4878002;29;20074;-85
2023/09/19 13:08:32;;;;;;;37.03;34.20;;;34.10;99.90;;;;;;4862588;29;20037;-87
2023/09/19 13:11:06;;;;;;;37.72;34.20;;;34.10;99.90;;;;;;4862425;29;20033;-85
2023/09/19 13:13:36;;;;;;;36.65;33.38;;;34.10;99.90;;;;;;4862298;29;20052;-85
2023/09/19 13:16:07;;;;;;;37.85;34.03;;;34.10;99.90;;;;;;4862352;29;20031;-84
2023/09/19 13:18:44;;;;;;;37.30;33.72;;;34.10;99.90;;;;;;4863130;29;20049;-83
2023/09/19 13:21:24;;;;;;;37.55;33.83;;;34.10;99.90;;;;;;4862445;29;20029;-82
2023/09/19 13:23:52;;;;;;;36.75;33.58;;;34.00;99.90;;;;;;4863309;29;20037;-88
2023/09/19 13:26:19;;;;;;;37.38;33.72;;;34.00;99.90;;;;;;4862708;29;20022;-88
2023/09/19 13:28:49;;;;;;;37.05;33.78;;;34.00;99.90;;;;;;4863954;29;20063;-88
2023/09/19 13:31:16;;;;;;;36.50;33.35;;;33.70;99.90;;;;;;4877963;29;20026;-87
2023/09/19 13:33:45;;;;;;;36.70;33.03;;;33.50;99.90;;;;;;4862969;29;20034;-87
2023/09/19 13:36:13;;;;;;;36.78;33.63;;;33.60;99.90;;;;;;4862705;29;20029;-87
2023/09/19 13:38:42;;;;;;;41.40;33.88;;;33.70;99.90;;;;;;4861775;29;20033;-89
2023/09/19 13:41:10;;;;;;;37.88;34.03;;;33.70;99.90;;;;;;4832285;29;20037;-87
2023/09/19 13:43:38;;;;;;;37.88;34.05;;;33.80;99.90;;;;;;4867728;29;20081;-83
2023/09/19 13:46:12;;;;;;;37.83;34.47;;;33.80;99.90;;;;;;4849565;29;20032;-84
2023/09/19 13:48:38;;;;;;;;;;;33.70;99.90;;;;;;4861950;29;20033;-85
2023/09/19 13:51:04;;;;;;;37.78;34.60;;;33.70;99.90;;;;;;4846972;29;19953;-84
2023/09/19 13:53:31;;;;;;;38.22;34.72;;;33.60;99.90;;;;;;4863070;29;20040;-87
2023/09/19 13:55:57;;;;;;;37.92;34.03;;;33.50;99.90;;;;;;4862582;29;20022;-90
2023/09/19 13:58:24;;;;;;;36.00;33.03;;;33.50;99.90;;;;;;4861203;29;20132;-86
2023/09/19 14:00:50;;;;;;;37.70;34.00;;;33.40;99.90;;;;;;4854638;29;20030;-86
2023/09/19 14:03:17;;;;;;;37.08;33.72;;;33.40;99.90;;;;;;4847464;29;20479;-86
2023/09/19 14:05:43;;;;;;;37.33;33.78;;;33.60;99.90;;;;;;4834383;29;20108;-86
2023/09/19 14:08:10;;;;;;;36.75;32.65;;;33.60;99.90;;;;;;4847470;29;20040;-86
2023/09/19 14:10:36;;;;;;;37.42;33.45;;;33.40;99.90;;;;;;4864531;29;20030;-83
2023/09/19 14:13:03;;;;;;;36.78;33.35;;;33.30;99.90;;;;;;4861961;29;20037;-81
2023/09/19 14:15:29;;;;;;;37.42;33.63;;;33.20;99.90;;;;;;4861813;29;20022;-81
2023/09/19 14:17:59;;;;;;;38.80;33.60;;;33.20;99.90;;;;;;4861556;29;20045;-82
2023/09/19 14:20:26;;;;;;;36.67;33.25;;;33.00;99.90;;;;;;4874183;29;20064;-81
2023/09/19 14:22:55;;;;;;;35.67;32.65;;;32.90;99.90;;;;;;4870985;29;20060;-83
2023/09/19 14:25:22;;;;;;;38.50;34.38;;;32.80;99.90;;;;;;4842952;29;20045;-83
2023/09/19 14:27:49;;;;;;;35.22;32.45;;;32.70;99.90;;;;;;4843361;29;20121;-84
2023/09/19 14:30:16;;;;;;;36.67;32.88;;;32.70;99.90;;;;;;4863349;29;20026;-83
2023/09/19 14:32:44;;;;;;;37.83;34.03;;;32.60;99.90;;;;;;4847181;29;20097;-83
2023/09/19 14:35:14;;;;;;;38.53;34.70;;;32.60;99.90;;;;;;4861534;29;20530;-82
2023/09/19 14:37:53;;;;;;;38.90;35.42;;;32.60;99.90;;;;;;4862643;29;20053;-80
2023/09/19 14:40:20;;;;;;;38.22;34.33;;;32.50;99.90;;;;;;4861459;29;20189;-83
2023/09/19 14:42:46;;;;;;;37.53;34.13;;;32.50;99.90;;;;;;4851862;29;20049;-85
2023/09/19 14:45:14;;;;;;;36.97;33.90;;;32.50;99.90;;;;;;4859603;29;20071;-85
2023/09/19 14:47:41;;;;;;;37.08;33.28;;;32.50;99.90;;;;;;4860429;29;20021;-84
2023/09/19 14:50:09;;;;;;;37.35;33.65;;;32.50;99.90;;;;;;4860627;29;20033;-85
2023/09/19 14:52:36;;;;;;;38.95;34.38;;;32.40;99.90;;;;;;4860550;29;20029;-82
2023/09/19 14:55:04;;;;;;;36.45;32.60;;;32.50;99.90;;;;;;4852689;29;20029;-82
2023/09/19 14:57:31;;;;;;;37.78;33.88;;;32.40;99.90;;;;;;4863235;29;20037;-83
2023/09/19 15:00:23;;;;;;;37.78;34.28;;;32.40;99.90;;;;;;4861017;29;20056;-81
2023/09/19 15:03:34;;;;;;;35.08;32.08;;;32.30;99.90;;;;;;4863309;29;20048;-82
2023/09/19 15:06:05;;;;;;;34.70;31.33;;;32.20;99.90;;;;;;4861596;29;20044;-83
2023/09/19 15:08:34;;;;;;;35.05;31.90;;;32.10;99.90;;;;;;4860200;29;20057;-82
2023/09/19 15:11:08;;;;;;;34.63;31.60;;;31.90;99.90;;;;;;4861292;29;20033;-82
2023/09/19 15:13:34;;;;;;;35.85;32.20;;;31.90;99.90;;;;;;4844575;29;20040;-82
2023/09/19 15:16:12;;;;;;;34.83;31.83;;;31.90;99.90;;;;;;4861494;29;20017;-82
2023/09/19 15:18:52;;;;;;;43.33;38.05;;;31.80;99.90;;;;;;4859579;29;20042;-84
2023/09/19 15:21:18;;;;;;;40.53;36.22;;;31.50;99.90;;;;;;4844762;29;20377;-82
2023/09/19 15:23:46;;;;;;;36.50;32.88;;;31.50;99.90;;;;;;4844638;29;20028;-82
2023/09/19 15:26:20;;;;;;;34.25;31.10;;;31.50;99.90;;;;;;4843119;29;20045;-81
2023/09/19 15:28:46;;;;;;;;;;;31.40;99.90;;;;;;4845612;29;20029;-83
2023/09/19 15:31:13;;;;;;;37.35;32.13;;;31.40;99.90;;;;;;4861307;29;19912;-80
2023/09/19 15:33:40;;;;;;;37.00;33.40;;;31.40;99.90;;;;;;4858092;29;20018;-81
2023/09/19 15:36:09;;;;;;;35.58;31.80;;;31.30;99.90;;;;;;4842515;29;20443;-81
2023/09/19 15:39:01;;;;;;;34.28;31.35;;;31.30;99.90;;;;;;4843181;29;20472;-80
2023/09/19 15:41:34;;;;;;;36.58;31.35;;;31.10;99.90;;;;;;4861331;29;20044;-86
2023/09/19 15:44:03;;;;;;;37.38;31.52;;;31.00;99.90;;;;;;4859520;29;20100;-83
2023/09/19 15:46:35;;;;;;;33.92;30.52;;;31.00;99.90;;;;;;4859804;29;20081;-84
2023/09/19 15:49:02;;;;;;;33.50;30.38;;;30.90;99.90;;;;;;4862090;29;20080;-83
2023/09/19 15:51:28;;;;;;;34.13;30.75;;;30.70;99.90;;;;;;4875085;29;20026;-84
2023/09/19 15:53:57;;;;;;;34.20;30.20;;;30.70;99.90;;;;;;4863997;29;20120;-83
2023/09/19 15:56:24;;;;;;;35.22;31.02;;;30.60;99.90;;;;;;4859460;29;20121;-83
2023/09/19 15:58:53;;;;;;;33.58;30.55;;;30.60;99.90;;;;;;4860028;29;20049;-83
2023/09/19 16:01:21;;;;;;;31.77;29.20;;;30.30;99.90;;;;;;4857588;29;20425;-83
2023/09/19 16:03:52;;;;;;;32.50;29.08;;;30.30;99.90;;;;;;4848878;29;20030;-83
2023/09/19 16:06:24;;;;;;;32.22;29.48;;;30.20;99.90;;;;;;4840914;29;20034;-82
2023/09/19 16:08:55;;;;;;;32.20;28.98;;;30.10;99.90;;;;;;4844787;29;20064;-82
2023/09/19 16:11:22;;;;;;;31.75;28.85;;;30.00;99.90;;;;;;4859431;29;20033;-82
2023/09/19 16:13:50;;;;;;;31.38;28.40;;;29.90;99.90;;;;;;4859133;29;20033;-82
2023/09/19 16:16:19;;;;;;;31.10;27.98;;;29.80;99.90;;;;;;4859357;29;20034;-83
2023/09/19 16:18:59;;;;;;;30.67;27.20;;;29.70;99.90;;;;;;4859036;29;20038;-82
2023/09/19 16:21:28;;;;;;;29.60;26.65;;;29.60;99.90;;;;;;4859531;29;20029;-82
2023/09/19 16:23:59;;;;;;;29.45;26.80;;;29.50;99.90;;;;;;4848833;29;20026;-84
2023/09/19 16:26:28;;;;;;;29.92;26.00;;;29.30;99.90;;;;;;4840765;29;20034;-83
2023/09/19 16:29:00;;;;;;;30.27;27.05;;;29.30;99.90;;;;;;4844528;29;20049;-82
2023/09/19 16:37:56;;;;;;;31.17;28.08;;;28.90;99.90;;;;;;5129961;27;20375;-83
2023/09/19 16:40:23;;;;;;;31.88;28.52;;;28.80;99.90;;;;;;5122717;28;20027;-83
2023/09/19 16:42:50;;;;;;;31.00;27.95;;;28.70;99.90;;;;;;5107082;28;20526;-83
2023/09/19 16:45:17;;;;;;;31.25;27.85;;;28.70;99.90;;;;;;5092891;28;20065;-83
2023/09/19 16:47:46;;;;;;;31.88;27.35;;;28.60;99.90;;;;;;5089095;28;20417;-84
2023/09/19 16:50:17;;;;;;;30.17;27.05;;;28.60;99.90;;;;;;5089538;28;20029;-83
2023/09/19 16:52:45;;;;;;;29.95;27.02;;;28.50;99.90;;;;;;5097674;28;20048;-83
2023/09/19 16:55:15;;;;;;;31.23;28.33;;;28.40;99.90;;;;;;5109433;28;20027;-83
2023/09/19 16:57:44;;;;;;;30.95;27.25;;;28.30;99.90;;;;;;5109605;28;20035;-84
2023/09/19 17:00:17;;;;;;;30.85;27.75;;;28.30;99.90;;;;;;5092463;28;20047;-84
2023/09/19 17:02:47;;;;;;;33.67;27.25;;;28.20;99.90;;;;;;5110986;28;20118;-84
2023/09/19 17:05:15;;;;;;;31.67;28.40;;;28.20;99.90;;;;;;5110856;28;20020;-82
2023/09/19 17:07:42;;;;;;;34.00;27.80;;;28.10;99.90;;;;;;5110768;28;20476;-83
2023/09/19 17:10:09;;;;;;;30.80;27.88;;;28.00;99.90;;;;;;5109255;28;20040;-83
2023/09/19 19:23:24;;;;;;;23.88;19.90;;;25.60;99.90;;;;;;5195083;22;20474;-80
2023/09/19 19:25:53;;;;;;;22.77;19.38;;;25.50;99.90;;;;;;5054648;28;20393;-81
2023/09/19 19:28:20;;;;;;;24.33;20.05;;;25.40;99.90;;;;;;5040574;28;20029;-81
2023/09/19 19:30:47;;;;;;;22.15;19.98;;;25.40;99.90;;;;;;5062408;28;20025;-82
2023/09/19 19:33:14;;;;;;;23.63;20.83;;;25.30;99.90;;;;;;5049103;28;20083;-80
2023/09/19 19:35:41;;;;;;;23.38;20.55;;;25.30;99.90;;;;;;5050415;28;20021;-80
2023/09/19 19:38:11;;;;;;;27.00;20.35;;;25.20;99.90;;;;;;5147826;22;20258;-83
2023/09/19 19:40:38;;;;;;;35.53;20.63;;;25.10;99.90;;;;;;5026198;28;20036;-92
2023/09/19 19:43:05;;;;;;;28.42;20.77;;;25.00;99.90;;;;;;4964369;28;20110;-93
2023/09/19 19:45:34;;;;;;;24.45;20.33;;;24.90;99.90;;;;;;5023461;28;20123;-90
2023/09/19 19:48:01;;;;;;;28.05;20.88;;;24.80;99.90;;;;;;5036878;28;20055;-87
2023/09/19 19:50:38;;;;;;;28.20;20.98;;;24.70;99.90;;;;;;5053551;28;20086;-85
2023/09/19 19:53:05;;;;;;;24.20;20.70;;;24.70;99.90;;;;;;5051201;28;20033;-87
2023/09/19 19:55:34;;;;;;;24.35;20.73;;;24.70;99.90;;;;;;5035912;28;20032;-87
2023/09/19 19:58:01;;;;;;;22.92;20.52;;;24.60;99.90;;;;;;5052657;28;20025;-88
2023/09/19 20:00:30;;;;;;;24.33;20.70;;;24.50;99.90;;;;;;5036106;28;20029;-89
2023/09/19 20:02:57;;;;;;;27.70;21.00;;;24.50;99.90;;;;;;5025016;28;20029;-85
2023/09/19 20:05:24;;;;;;;28.00;20.73;;;24.40;99.90;;;;;;5033182;28;20036;-86
2023/09/19 20:07:52;;;;;;;23.30;20.75;;;24.40;99.90;;;;;;5033704;28;20032;-88
2023/09/19 20:10:22;;;;;;;24.58;20.17;;;24.40;99.90;;;;;;5036288;28;20123;-86
2023/09/19 20:12:49;;;;;;;28.95;20.75;;;24.40;99.90;;;;;;5032713;28;20478;-88
2023/09/19 20:15:16;;;;;;;25.13;21.02;;;24.40;99.90;;;;;;5033505;28;20053;-89
2023/09/19 20:17:46;;;;;;;24.60;20.60;;;24.40;99.90;;;;;;5035340;28;20041;-93
2023/09/19 20:20:14;;;;;;;31.33;20.17;;;24.30;99.90;;;;;;5034179;28;20482;-91
2023/09/19 20:22:45;;;;;;;31.75;20.35;;;24.30;99.90;;;;;;5045902;28;20019;-91
2023/09/19 20:25:12;;;;;;;24.75;19.77;;;24.30;99.90;;;;;;5048694;28;20033;-89
2023/09/19 20:27:42;;;;;;;22.38;19.40;;;24.40;99.90;;;;;;5035903;28;20021;-90
2023/09/19 20:30:12;;;;;;;22.08;19.75;;;24.40;99.90;;;;;;5033051;28;20029;-91
2023/09/19 20:32:39;;;;;;;26.80;19.55;;;24.40;99.90;;;;;;5031317;28;20037;-90